Time;durP1;ratioP1;P1;durP2;ratioP2;P2;SDS_P1;SDS_P2;PMS_P1;PMS_P2;Temp;Humidity;BMP_temperature;BMP_pressure;BME280_temperature;BME280_humidity;BME280_pressure;Samples;Min_cycle;Max_cycle;Signal;HPM_P1;HPM_P2
2022/12/14 00:01:51;;;;;;;;;4.00;4.00;;;;;;;;5011598;28;26603;-95
2022/12/14 00:04:16;;;;;;;;;0.00;0.00;;;;;;;;4991298;28;29987;-96
2022/12/14 00:06:41;;;;;;;;;0.00;0.00;;;;;;;;4991027;28;28614;-96
2022/12/14 00:09:06;;;;;;;;;0.00;0.00;;;;;;;;4991927;28;28562;-96
2022/12/14 00:11:32;;;;;;;;;0.00;0.00;;;;;;;;4991541;28;27858;-96
2022/12/14 00:13:59;;;;;;;;;0.00;0.00;;;;;;;;4991150;28;30019;-96
2022/12/14 00:16:26;;;;;;;;;4.00;4.00;;;;;;;;4999570;28;28693;-96
2022/12/14 00:18:52;;;;;;;;;0.00;0.00;;;;;;;;5011410;28;28734;-95
2022/12/14 00:21:17;;;;;;;;;0.00;0.00;;;;;;;;5011454;28;27841;-96
2022/12/14 00:23:43;;;;;;;;;0.00;0.00;;;;;;;;5010784;28;30925;-96
2022/12/14 00:26:08;;;;;;;;;0.00;0.00;;;;;;;;5010498;28;28679;-96
2022/12/14 00:28:33;;;;;;;;;0.00;0.00;;;;;;;;5010899;28;28454;-96
2022/12/14 00:30:58;;;;;;;;;0.00;0.00;;;;;;;;5011986;28;28384;-96
2022/12/14 00:33:24;;;;;;;;;0.00;0.00;;;;;;;;4994471;28;30111;-96
2022/12/14 00:35:49;;;;;;;;;3.00;3.00;;;;;;;;4994429;28;29767;-96
2022/12/14 00:38:14;;;;;;;;;0.00;0.00;;;;;;;;4994196;28;28342;-96
2022/12/14 00:40:39;;;;;;;;;0.00;0.00;;;;;;;;5012019;28;28254;-96
2022/12/14 00:43:04;;;;;;;;;0.00;0.00;;;;;;;;4994553;28;30683;-96
2022/12/14 00:45:29;;;;;;;;;0.00;0.00;;;;;;;;5001501;28;28420;-96
2022/12/14 00:47:55;;;;;;;;;0.00;0.00;;;;;;;;4994838;28;28296;-96
2022/12/14 00:50:20;;;;;;;;;0.00;0.00;;;;;;;;4994694;28;28517;-96
2022/12/14 00:52:45;;;;;;;;;0.00;0.00;;;;;;;;4994240;28;30046;-96
2022/12/14 00:55:10;;;;;;;;;0.67;0.67;;;;;;;;5011711;28;28480;-95
2022/12/14 00:57:36;;;;;;;;;0.00;0.00;;;;;;;;5006306;28;28380;-96
2022/12/14 01:00:01;;;;;;;;;0.00;0.00;;;;;;;;5001299;28;28519;-96
2022/12/14 01:02:26;;;;;;;;;0.00;0.00;;;;;;;;4994391;28;29730;-96
2022/12/14 01:04:51;;;;;;;;;0.00;0.00;;;;;;;;4994195;28;28543;-96
2022/12/14 01:07:17;;;;;;;;;10.00;10.00;;;;;;;;4993571;28;28313;-96
2022/12/14 01:09:42;;;;;;;;;0.00;0.00;;;;;;;;4994229;28;28539;-96
2022/12/14 01:12:07;;;;;;;;;0.00;0.00;;;;;;;;4994314;28;29979;-95
2022/12/14 01:14:32;;;;;;;;;0.00;0.00;;;;;;;;4997152;28;29123;-96
2022/12/14 01:16:57;;;;;;;;;0.00;0.00;;;;;;;;5011449;28;28428;-96
2022/12/14 01:19:23;;;;;;;;;0.00;0.00;;;;;;;;5013878;28;27883;-96
2022/12/14 01:21:48;;;;;;;;;0.00;0.00;;;;;;;;5013543;28;29758;-96
2022/12/14 01:24:13;;;;;;;;;0.00;0.00;;;;;;;;5013714;28;28601;-96
2022/12/14 01:26:39;;;;;;;;;0.00;0.00;;;;;;;;5013088;28;28460;-96
2022/12/14 01:29:05;;;;;;;;;0.00;0.00;;;;;;;;5013691;28;28362;-95
2022/12/14 01:31:32;;;;;;;;;0.00;0.00;;;;;;;;5013154;28;30321;-96
2022/12/14 01:33:57;;;;;;;;;0.67;0.67;;;;;;;;4997473;28;28967;-96
2022/12/14 01:36:27;;;;;;;;;0.00;0.00;;;;;;;;4997137;28;28443;-96
2022/12/14 01:38:54;;;;;;;;;0.00;0.00;;;;;;;;4997489;28;28484;-96
2022/12/14 01:41:28;;;;;;;;;0.00;0.00;;;;;;;;4996638;28;29865;-96
2022/12/14 01:43:57;;;;;;;;;0.00;0.00;;;;;;;;4997138;28;29214;-96
2022/12/14 01:46:32;;;;;;;;;0.00;0.00;;;;;;;;5012115;28;28739;-96
2022/12/14 01:49:00;;;;;;;;;0.00;0.00;;;;;;;;5023352;28;28205;-96
2022/12/14 01:51:27;;;;;;;;;0.00;0.00;;;;;;;;5032550;28;8790;-96
2022/12/14 01:53:53;;;;;;;;;0.00;0.00;;;;;;;;5032804;28;8832;-95
2022/12/14 01:56:18;;;;;;;;;0.00;0.00;;;;;;;;5032218;28;24928;-96
2022/12/14 01:58:44;;;;;;;;;0.00;0.00;;;;;;;;5013072;28;28510;-96
2022/12/14 02:01:10;;;;;;;;;0.00;0.00;;;;;;;;5013429;28;30003;-96
2022/12/14 02:03:47;;;;;;;;;0.00;0.00;;;;;;;;4997688;28;27929;-94
2022/12/14 02:06:16;;;;;;;;;0.00;0.00;;;;;;;;5016274;28;28522;-94
2022/12/14 02:08:42;;;;;;;;;0.00;0.00;;;;;;;;5014507;28;28340;-94
2022/12/14 02:11:07;;;;;;;;;0.00;0.00;;;;;;;;4996338;28;29799;-94
2022/12/14 02:13:35;;;;;;;;;0.00;0.00;;;;;;;;4996779;28;28761;-93
2022/12/14 02:16:00;;;;;;;;;0.00;0.00;;;;;;;;4996193;28;28366;-93
2022/12/14 02:18:27;;;;;;;;;0.00;0.00;;;;;;;;4996630;28;28464;-93
2022/12/14 02:21:11;;;;;;;;;0.00;0.00;;;;;;;;4997537;28;28457;-94
2022/12/14 02:23:51;;;;;;;;;10.00;10.00;;;;;;;;5001326;28;28622;-94
2022/12/14 02:26:30;;;;;;;;;0.00;0.00;;;;;;;;5007463;28;28290;-93
2022/12/14 02:29:01;;;;;;;;;0.00;0.00;;;;;;;;4997893;28;28448;-93
2022/12/14 02:31:40;;;;;;;;;0.33;0.33;;;;;;;;5013758;28;28834;-94
2022/12/14 02:34:12;;;;;;;;;0.00;0.00;;;;;;;;4996619;28;28552;-94
2022/12/14 02:36:44;;;;;;;;;5.67;5.67;;;;;;;;4996197;28;27838;-93
2022/12/14 02:39:45;;;;;;;;;13.00;13.00;;;;;;;;4995932;28;28402;-94
2022/12/14 02:42:20;;;;;;;;;0.00;0.00;;;;;;;;4898668;29;29960;-93
2022/12/14 02:44:59;;;;;;;;;1.00;1.00;;;;;;;;4898338;29;28654;-94
2022/12/14 02:47:44;;;;;;;;;0.00;0.00;;;;;;;;4898969;29;28384;-93
2022/12/14 02:50:09;;;;;;;;;0.00;0.00;;;;;;;;4898692;29;28395;-93
2022/12/14 02:52:40;;;;;;;;;0.00;0.00;;;;;;;;4914797;29;29823;-94
2022/12/14 02:55:05;;;;;;;;;0.00;0.00;;;;;;;;4898354;29;28668;-94
2022/12/14 02:57:43;;;;;;;;;0.00;0.00;;;;;;;;4914735;29;28496;-94
2022/12/14 03:00:08;;;;;;;;;0.00;0.00;;;;;;;;4887558;29;28341;-93
2022/12/14 03:02:35;;;;;;;;;0.00;0.00;;;;;;;;4879843;29;30787;-93
2022/12/14 03:05:01;;;;;;;;;16.50;16.50;;;;;;;;4879628;29;28756;-94
2022/12/14 03:07:32;;;;;;;;;0.00;0.00;;;;;;;;4879711;29;28362;-95
2022/12/14 03:10:03;;;;;;;;;0.00;0.00;;;;;;;;4895072;29;28610;-94
2022/12/14 03:12:28;;;;;;;;;0.00;0.00;;;;;;;;4879831;29;29859;-93
2022/12/14 03:14:54;;;;;;;;;0.00;0.00;;;;;;;;4888409;29;28631;-93
2022/12/14 03:17:23;;;;;;;;;0.00;0.00;;;;;;;;5010218;28;28526;-94
2022/12/14 03:19:52;;;;;;;;;0.00;0.00;;;;;;;;5012176;28;28440;-95
2022/12/14 03:22:22;;;;;;;;;0.00;0.00;;;;;;;;5011486;28;30185;-94
2022/12/14 03:24:50;;;;;;;;;0.00;0.00;;;;;;;;5011827;28;29489;-94
2022/12/14 03:27:19;;;;;;;;;0.00;0.00;;;;;;;;5012052;28;28534;-95
2022/12/14 03:29:47;;;;;;;;;0.00;0.00;;;;;;;;5011755;28;27904;-95
2022/12/14 03:32:14;;;;;;;;;0.00;0.00;;;;;;;;4995572;28;30060;-95
2022/12/14 03:34:44;;;;;;;;;0.00;0.00;;;;;;;;4994545;28;29754;-95
2022/12/14 03:37:09;;;;;;;;;0.00;0.00;;;;;;;;5010564;28;28528;-95
2022/12/14 03:39:35;;;;;;;;;0.00;0.00;;;;;;;;4995320;28;28496;-95
2022/12/14 03:42:10;;;;;;;;;0.00;0.00;;;;;;;;4995646;28;30145;-95
2022/12/14 03:44:54;;;;;;;;;0.00;0.00;;;;;;;;4996456;28;29236;-94
2022/12/14 03:47:22;;;;;;;;;0.00;0.00;;;;;;;;4995487;28;28666;-94
2022/12/14 03:49:54;;;;;;;;;0.00;0.00;;;;;;;;5004240;28;28536;-95
2022/12/14 03:52:22;;;;;;;;;0.00;0.00;;;;;;;;5006892;28;29808;-95
2022/12/14 03:54:53;;;;;;;;;0.00;0.00;;;;;;;;4995086;28;28587;-95
2022/12/14 03:57:57;;;;;;;;;0.00;0.00;;;;;;;;4995210;28;28001;-95
2022/12/14 04:00:23;;;;;;;;;0.00;0.00;;;;;;;;4897562;29;28260;-95
2022/12/14 04:02:48;;;;;;;;;0.00;0.00;;;;;;;;4897957;29;30644;-95
2022/12/14 04:05:40;;;;;;;;;0.00;0.00;;;;;;;;4913263;29;28516;-96
2022/12/14 04:08:28;;;;;;;;;0.00;0.00;;;;;;;;4841767;29;28369;-96
2022/12/14 04:19:19;;;;;;;;;0.67;0.67;;;;;;;;4857375;29;28380;-95
2022/12/14 04:21:45;;;;;;;;;0.00;0.00;;;;;;;;4841342;29;28404;-95
2022/12/14 04:27:05;;;;;;;;;0.00;0.00;;;;;;;;4857205;29;28377;-94
2022/12/14 04:32:22;;;;;;;;;0.00;0.00;;;;;;;;4929775;28;28416;-95
2022/12/14 04:34:49;;;;;;;;;0.00;0.00;;;;;;;;4915947;28;32131;-95
2022/12/14 04:37:16;;;;;;;;;0.00;0.00;;;;;;;;4932340;28;27815;-95
2022/12/14 04:39:46;;;;;;;;;0.00;0.00;;;;;;;;4933175;28;28406;-94
2022/12/14 04:42:13;;;;;;;;;0.00;0.00;;;;;;;;4936207;28;8808;-95
2022/12/14 04:44:41;;;;;;;;;0.00;0.00;;;;;;;;4970753;28;8806;-95
2022/12/14 04:47:08;;;;;;;;;0.00;0.00;;;;;;;;5030483;28;27809;-94
2022/12/14 04:50:02;;;;;;;;;0.00;0.00;;;;;;;;5013822;28;28385;-95
2022/12/14 04:52:46;;;;;;;;;0.00;0.00;;;;;;;;4994889;28;28585;-95
2022/12/14 04:55:15;;;;;;;;;0.00;0.00;;;;;;;;5014251;28;31072;-95
2022/12/14 04:57:45;;;;;;;;;0.00;0.00;;;;;;;;5014160;28;29248;-95
2022/12/14 05:00:11;;;;;;;;;0.00;0.00;;;;;;;;5018503;28;28669;-95
2022/12/14 05:02:59;;;;;;;;;0.00;0.00;;;;;;;;5013152;28;28567;-95
2022/12/14 05:05:31;;;;;;;;;0.00;0.00;;;;;;;;4981338;28;29847;-96
2022/12/14 05:08:16;;;;;;;;;9.00;9.00;;;;;;;;5012612;28;28630;-95
2022/12/14 05:10:55;;;;;;;;;0.00;0.00;;;;;;;;5031593;28;28440;-96
2022/12/14 05:13:23;;;;;;;;;0.00;0.00;;;;;;;;5021537;28;26617;-95
2022/12/14 05:15:53;;;;;;;;;0.00;0.00;;;;;;;;5030182;28;26703;-95
2022/12/14 05:18:19;;;;;;;;;1.00;1.00;;;;;;;;5029974;28;8907;-95
2022/12/14 05:20:47;;;;;;;;;0.00;0.00;;;;;;;;5029655;28;8827;-96
2022/12/14 05:23:13;;;;;;;;;0.00;0.00;;;;;;;;5029411;28;24913;-96
2022/12/14 05:25:38;;;;;;;;;0.00;0.00;;;;;;;;5011669;28;31770;-95
2022/12/14 05:28:04;;;;;;;;;0.00;0.00;;;;;;;;5029305;28;29560;-96
2022/12/14 05:30:29;;;;;;;;;0.00;0.00;;;;;;;;5018260;28;8801;-96
2022/12/14 05:32:54;;;;;;;;;0.00;0.00;;;;;;;;5018399;28;8805;-95
2022/12/14 05:35:20;;;;;;;;;0.00;0.00;;;;;;;;5022119;28;28479;-95
2022/12/14 05:37:45;;;;;;;;;2.67;2.67;;;;;;;;5004409;28;29055;-94
2022/12/14 05:40:10;;;;;;;;;0.00;0.00;;;;;;;;5018620;28;28698;-95
2022/12/14 05:42:36;;;;;;;;;0.00;0.00;;;;;;;;5016624;28;28612;-95
2022/12/14 05:45:01;;;;;;;;;0.00;0.00;;;;;;;;5003679;28;28482;-96
2022/12/14 05:47:26;;;;;;;;;0.00;0.00;;;;;;;;4998346;28;28504;-96
2022/12/14 05:49:51;;;;;;;;;0.00;0.00;;;;;;;;5019605;28;27805;-94
2022/12/14 05:52:17;;;;;;;;;0.00;0.00;;;;;;;;5016407;28;8911;-96
2022/12/14 05:54:42;;;;;;;;;0.00;0.00;;;;;;;;5015929;28;28482;-95
2022/12/14 05:57:08;;;;;;;;;0.00;0.00;;;;;;;;5018152;28;27939;-94
2022/12/14 05:59:33;;;;;;;;;0.00;0.00;;;;;;;;5015823;28;28363;-95
2022/12/14 06:01:58;;;;;;;;;0.00;0.00;;;;;;;;5033220;28;9584;-96
2022/12/14 06:04:23;;;;;;;;;0.00;0.00;;;;;;;;5033382;28;8825;-96
2022/12/14 06:06:49;;;;;;;;;0.00;0.00;;;;;;;;5032264;28;26487;-95
2022/12/14 06:09:15;;;;;;;;;0.00;0.00;;;;;;;;5020439;28;28148;-96
2022/12/14 06:11:40;;;;;;;;;0.00;0.00;;;;;;;;5029915;28;25398;-94
2022/12/14 06:14:06;;;;;;;;;0.00;0.00;;;;;;;;5029413;28;28191;-95
2022/12/14 06:16:32;;;;;;;;;0.00;0.00;;;;;;;;5062994;28;28788;-94
2022/12/14 06:18:59;;;;;;;;;0.00;0.00;;;;;;;;5066461;28;8813;-95
2022/12/14 06:21:28;;;;;;;;;0.00;0.00;;;;;;;;5034013;28;8809;-95
2022/12/14 06:23:54;;;;;;;;;0.00;0.00;;;;;;;;5035710;28;27961;-94
2022/12/14 06:26:19;;;;;;;;;0.00;0.00;;;;;;;;5028652;28;27063;-95
2022/12/14 06:28:45;;;;;;;;;12.00;12.00;;;;;;;;5052489;28;26264;-95
2022/12/14 06:31:15;;;;;;;;;0.00;0.00;;;;;;;;5008609;28;27542;-95
2022/12/14 06:33:40;;;;;;;;;0.00;0.00;;;;;;;;5003096;28;14499;-95
2022/12/14 06:36:05;;;;;;;;;0.00;0.00;;;;;;;;4998417;28;8812;-95
2022/12/14 06:38:30;;;;;;;;;0.00;0.00;;;;;;;;4996349;28;8950;-95
2022/12/14 06:40:56;;;;;;;;;0.00;0.00;;;;;;;;4995580;28;25917;-96
2022/12/14 06:43:23;;;;;;;;;0.00;0.00;;;;;;;;4986697;28;31095;-95
2022/12/14 06:45:48;;;;;;;;;0.00;0.00;;;;;;;;5013104;28;8860;-95
2022/12/14 06:48:14;;;;;;;;;0.00;0.00;;;;;;;;5029195;28;8909;-95
2022/12/14 06:50:39;;;;;;;;;0.00;0.00;;;;;;;;4995405;28;24957;-96
2022/12/14 06:53:04;;;;;;;;;0.00;0.00;;;;;;;;4976446;28;29843;-95
2022/12/14 06:55:29;;;;;;;;;0.00;0.00;;;;;;;;5020089;28;28448;-96
2022/12/14 06:57:55;;;;;;;;;0.00;0.00;;;;;;;;4996123;28;10116;-94
2022/12/14 07:00:21;;;;;;;;;0.00;0.00;;;;;;;;5015315;28;8841;-95
2022/12/14 07:02:47;;;;;;;;;0.00;0.00;;;;;;;;5028087;28;27768;-95
2022/12/14 07:05:13;;;;;;;;;0.00;0.00;;;;;;;;5008936;28;28683;-95
2022/12/14 07:07:38;;;;;;;;;0.00;0.00;;;;;;;;5013356;28;28401;-94
2022/12/14 07:10:04;;;;;;;;;0.00;0.00;;;;;;;;5017679;28;27963;-95
2022/12/14 07:12:30;;;;;;;;;0.00;0.00;;;;;;;;5018047;28;27825;-95
2022/12/14 07:14:55;;;;;;;;;0.00;0.00;;;;;;;;5011577;28;9559;-95
2022/12/14 07:17:20;;;;;;;;;0.00;0.00;;;;;;;;5013119;28;9626;-95
2022/12/14 07:19:46;;;;;;;;;1.33;1.33;;;;;;;;5029958;28;25485;-96
2022/12/14 07:22:11;;;;;;;;;0.00;0.00;;;;;;;;5020796;28;29690;-94
2022/12/14 07:24:37;;;;;;;;;0.00;0.00;;;;;;;;5044118;28;8830;-86
2022/12/14 07:27:03;;;;;;;;;0.00;0.00;;;;;;;;5011131;28;8772;-85
2022/12/14 07:29:28;;;;;;;;;0.00;0.00;;;;;;;;5030548;28;24949;-91
2022/12/14 07:31:53;;;;;;;;;0.00;0.00;;;;;;;;5020396;28;29431;-93
2022/12/14 07:34:18;;;;;;;;;0.00;0.00;;;;;;;;5029532;28;28366;-93
2022/12/14 07:36:43;;;;;;;;;0.00;0.00;;;;;;;;5028258;28;27718;-94
2022/12/14 07:39:11;;;;;;;;;0.00;0.00;;;;;;;;5018874;28;28118;-94
2022/12/14 07:41:36;;;;;;;;;0.00;0.00;;;;;;;;5028744;28;18295;-92
2022/12/14 07:44:02;;;;;;;;;0.00;0.00;;;;;;;;5029975;28;8903;-91
2022/12/14 07:46:28;;;;;;;;;0.00;0.00;;;;;;;;5031173;28;9435;-92
2022/12/14 07:48:54;;;;;;;;;0.00;0.00;;;;;;;;5028336;28;26550;-92
2022/12/14 07:51:21;;;;;;;;;0.00;0.00;;;;;;;;5022711;28;28498;-92
2022/12/14 07:53:47;;;;;;;;;0.00;0.00;;;;;;;;5031448;28;8746;-92
2022/12/14 07:56:14;;;;;;;;;6.00;6.00;;;;;;;;5030072;28;8832;-92
2022/12/14 07:58:40;;;;;;;;;0.00;0.00;;;;;;;;5020234;28;27157;-92
2022/12/14 08:01:09;;;;;;;;;0.00;0.00;;;;;;;;5036163;28;30903;-92
2022/12/14 08:03:35;;;;;;;;;0.00;0.00;;;;;;;;5017759;28;29559;-92
2022/12/14 08:06:02;;;;;;;;;0.00;0.00;;;;;;;;5028669;28;8820;-92
2022/12/14 08:08:28;;;;;;;;;0.00;0.00;;;;;;;;5024749;28;8867;-92
2022/12/14 08:10:53;;;;;;;;;0.00;0.00;;;;;;;;5023064;28;27828;-92
2022/12/14 08:13:18;;;;;;;;;0.00;0.00;;;;;;;;5013365;28;29496;-92
2022/12/14 08:15:43;;;;;;;;;0.00;0.00;;;;;;;;5010259;28;28192;-92
2022/12/14 08:18:08;;;;;;;;;0.00;0.00;;;;;;;;5026989;28;9772;-93
2022/12/14 08:20:33;;;;;;;;;0.00;0.00;;;;;;;;5023910;28;8968;-93
2022/12/14 08:22:59;;;;;;;;;0.00;0.00;;;;;;;;5329979;22;26611;-96
2022/12/14 08:25:24;;;;;;;;;0.00;0.00;;;;;;;;5036942;28;27622;-96
2022/12/14 08:27:49;;;;;;;;;0.00;0.00;;;;;;;;5055746;28;8803;-96
2022/12/14 08:30:15;;;;;;;;;13.00;13.00;;;;;;;;5045456;28;8842;-96
2022/12/14 08:32:40;;;;;;;;;0.00;0.00;;;;;;;;5041478;28;26588;-95
2022/12/14 08:35:06;;;;;;;;;18.00;18.00;;;;;;;;5013978;28;28649;-95
2022/12/14 08:37:31;;;;;;;;;0.00;0.00;;;;;;;;5036966;28;28332;-92
2022/12/14 08:39:59;;;;;;;;;0.00;0.00;;;;;;;;5038148;28;8775;-96
2022/12/14 08:42:24;;;;;;;;;0.00;0.00;;;;;;;;5039905;28;10052;-96
2022/12/14 08:44:50;;;;;;;;;0.00;0.00;;;;;;;;5041851;28;27888;-96
2022/12/14 08:47:15;;;;;;;;;0.00;0.00;;;;;;;;5039519;28;26716;-96
2022/12/14 08:49:41;;;;;;;;;0.00;0.00;;;;;;;;5038733;28;8906;-96
2022/12/14 08:52:06;;;;;;;;;0.00;0.00;;;;;;;;5031852;28;8827;-96
2022/12/14 08:54:31;;;;;;;;;0.00;0.00;;;;;;;;5049623;28;24208;-96
2022/12/14 08:56:57;;;;;;;;;0.00;0.00;;;;;;;;5035563;28;27935;-96
2022/12/14 08:59:24;;;;;;;;;0.00;0.00;;;;;;;;5045123;28;8827;-96
2022/12/14 09:01:52;;;;;;;;;0.00;0.00;;;;;;;;5043276;28;8812;-96
2022/12/14 09:04:18;;;;;;;;;0.00;0.00;;;;;;;;5042714;28;24200;-96
2022/12/14 09:06:44;;;;;;;;;6.00;6.00;;;;;;;;5021701;28;27996;-96
2022/12/14 09:09:09;;;;;;;;;0.00;0.00;;;;;;;;5042976;28;8815;-96
2022/12/14 09:11:34;;;;;;;;;0.00;0.00;;;;;;;;5044311;28;8931;-96
2022/12/14 09:14:01;;;;;;;;;0.00;0.00;;;;;;;;5046618;28;24077;-96
2022/12/14 09:16:26;;;;;;;;;0.00;0.00;;;;;;;;5021749;28;27983;-96
2022/12/14 09:18:52;;;;;;;;;0.00;0.00;;;;;;;;5034858;28;27845;-96
2022/12/14 09:21:17;;;;;;;;;0.00;0.00;;;;;;;;5031106;28;29974;-96
2022/12/14 09:23:43;;;;;;;;;0.00;0.00;;;;;;;;5042222;28;8823;-96
2022/12/14 09:26:08;;;;;;;;;0.00;0.00;;;;;;;;5038909;28;8819;-96
2022/12/14 09:28:35;;;;;;;;;0.00;0.00;;;;;;;;5037944;28;23291;-96
2022/12/14 09:31:03;;;;;;;;;0.00;0.00;;;;;;;;5027830;28;29049;-96
2022/12/14 09:33:29;;;;;;;;;0.00;0.00;;;;;;;;5034959;28;8910;-96
2022/12/14 09:36:01;;;;;;;;;0.00;0.00;;;;;;;;5041259;28;8906;-96
2022/12/14 09:38:30;;;;;;;;;0.00;0.00;;;;;;;;5042375;28;27824;-96
2022/12/14 09:41:01;;;;;;;;;0.00;0.00;;;;;;;;5035075;28;28588;-96
2022/12/14 09:43:34;;;;;;;;;3.00;3.00;;;;;;;;5043658;28;28086;-96
2022/12/14 09:46:09;;;;;;;;;2.00;2.00;;;;;;;;5041890;28;27888;-96
2022/12/14 09:48:35;;;;;;;;;0.00;0.00;;;;;;;;5050006;28;8760;-96
2022/12/14 09:51:02;;;;;;;;;1.00;1.00;;;;;;;;5061459;28;8802;-96
2022/12/14 09:53:30;;;;;;;;;0.00;0.00;;;;;;;;5024874;28;24164;-96
2022/12/14 09:56:03;;;;;;;;;0.00;0.00;;;;;;;;5024299;28;27844;-96
2022/12/14 10:08:57;;;;;;;;;0.00;0.00;;;;;;;;5057819;28;27678;-95
2022/12/14 10:14:02;;;;;;;;;0.00;0.00;;;;;;;;5067200;28;25442;-94
2022/12/14 10:16:35;;;;;;;;;0.00;0.00;;;;;;;;5050759;28;8772;-96
2022/12/14 10:19:15;;;;;;;;;0.00;0.00;;;;;;;;5055607;28;8781;-96
2022/12/14 10:21:47;;;;;;;;;0.00;0.00;;;;;;;;5052742;28;26733;-96
2022/12/14 10:24:16;;;;;;;;;0.00;0.00;;;;;;;;5045371;28;25056;-96
2022/12/14 10:26:45;;;;;;;;;0.00;0.00;;;;;;;;5047957;28;8815;-96
2022/12/14 10:29:14;;;;;;;;;0.00;0.00;;;;;;;;5036981;28;11770;-96
2022/12/14 10:31:50;;;;;;;;;0.00;0.00;;;;;;;;5038289;28;13856;-96
2022/12/14 10:34:17;;;;;;;;;14.67;14.67;;;;;;;;5035254;28;9952;-96
2022/12/14 10:36:49;;;;;;;;;0.00;0.00;;;;;;;;5039249;28;26670;-96
2022/12/14 10:39:41;;;;;;;;;0.00;0.00;;;;;;;;5040495;28;27873;-96
2022/12/14 10:42:14;;;;;;;;;0.00;0.00;;;;;;;;4967508;28;8882;-96
2022/12/14 10:44:52;;;;;;;;;10.00;10.00;;;;;;;;4962106;28;8910;-96
2022/12/14 10:47:35;;;;;;;;;0.00;0.00;;;;;;;;4975653;28;24926;-96
2022/12/14 10:50:05;;;;;;;;;0.00;0.00;;;;;;;;4959432;28;28405;-96
2022/12/14 10:52:35;;;;;;;;;0.00;0.00;;;;;;;;4960824;28;10199;-96
2022/12/14 10:55:10;;;;;;;;;0.00;0.00;;;;;;;;4972003;28;17741;-96
2022/12/14 10:57:35;;;;;;;;;0.00;0.00;;;;;;;;4964096;28;8935;-96
2022/12/14 11:00:03;;;;;;;;;0.00;0.00;;;;;;;;4992263;28;8827;-95
2022/12/14 11:02:32;;;;;;;;;0.00;0.00;;;;;;;;5101928;22;26275;-96
2022/12/14 11:05:06;;;;;;;;;0.00;0.00;;;;;;;;5144914;22;16712;-96
2022/12/14 11:07:32;;;;;;;;;0.00;0.00;;;;;;;;5068064;22;8840;-96
2022/12/14 11:10:23;;;;;;;;;0.00;0.00;;;;;;;;5025032;28;12115;-96
2022/12/14 11:13:07;;;;;;;;;0.00;0.00;;;;;;;;5005985;28;24138;-91
2022/12/14 11:28:46;;;;;;;;;0.00;0.00;;;;;;;;5120598;23;8819;-96
2022/12/14 11:31:24;;;;;;;;;0.00;0.00;;;;;;;;5048468;28;8756;-96
2022/12/14 11:33:54;;;;;;;;;0.00;0.00;;;;;;;;5112653;22;9232;-96
2022/12/14 11:36:36;;;;;;;;;0.00;0.00;;;;;;;;5155125;23;12953;-95
2022/12/14 11:39:11;;;;;;;;;0.00;0.00;;;;;;;;5004235;28;11903;-93
2022/12/14 11:41:39;;;;;;;;;0.00;0.00;;;;;;;;4994366;28;11540;-91
2022/12/14 11:44:20;;;;;;;;;0.00;0.00;;;;;;;;5029368;28;13067;-89
2022/12/14 11:46:51;;;;;;;;;0.00;0.00;;;;;;;;5015858;28;27723;-90
2022/12/14 11:49:22;;;;;;;;;0.00;0.00;;;;;;;;5004517;28;18070;-90
2022/12/14 11:51:58;;;;;;;;;0.00;0.00;;;;;;;;5023141;28;11907;-94
2022/12/14 11:54:23;;;;;;;;;0.00;0.00;;;;;;;;4993838;28;9187;-90
2022/12/14 11:56:49;;;;;;;;;0.00;0.00;;;;;;;;5003475;28;11001;-93
2022/12/14 11:59:15;;;;;;;;;6.33;6.00;;;;;;;;5035005;28;27897;-95
2022/12/14 12:01:41;;;;;;;;;0.00;0.00;;;;;;;;5001902;28;9661;-91
2022/12/14 12:04:11;;;;;;;;;0.00;0.00;;;;;;;;5017236;28;9457;-95
2022/12/14 12:06:36;;;;;;;;;0.00;0.00;;;;;;;;5005546;28;27732;-90
2022/12/14 12:09:08;;;;;;;;;0.00;0.00;;;;;;;;4988322;28;27783;-90
2022/12/14 12:11:33;;;;;;;;;0.00;0.00;;;;;;;;4991730;28;39780;-89
2022/12/14 12:14:19;;;;;;;;;0.00;0.00;;;;;;;;4978135;28;28530;-90
2022/12/14 12:16:44;;;;;;;;;0.00;0.00;;;;;;;;5010795;28;28593;-90
2022/12/14 12:19:09;;;;;;;;;0.00;0.00;;;;;;;;5010279;28;14539;-92
2022/12/14 12:21:36;;;;;;;;;0.00;0.00;;;;;;;;4994707;28;8849;-91
2022/12/14 12:24:15;;;;;;;;;0.00;0.00;;;;;;;;5008922;28;10467;-90
2022/12/14 12:26:43;;;;;;;;;3.00;3.00;;;;;;;;5018467;28;8841;-91
2022/12/14 12:29:31;;;;;;;;;0.00;0.00;;;;;;;;4988674;28;28509;-89
2022/12/14 12:32:00;;;;;;;;;0.00;0.00;;;;;;;;4987449;28;28571;-91
2022/12/14 12:34:42;;;;;;;;;0.00;0.00;;;;;;;;4987726;28;27810;-92
2022/12/14 12:37:12;;;;;;;;;0.00;0.00;;;;;;;;4973890;28;29651;-91
2022/12/14 12:39:40;;;;;;;;;0.00;0.00;;;;;;;;5002711;28;27861;-90
2022/12/14 12:42:24;;;;;;;;;0.00;0.00;;;;;;;;4983094;28;28554;-91
2022/12/14 12:44:53;;;;;;;;;0.00;0.00;;;;;;;;5005376;28;14710;-90
2022/12/14 12:47:37;;;;;;;;;0.00;0.00;;;;;;;;4995114;28;10077;-89
2022/12/14 12:50:05;;;;;;;;;24.00;24.00;;;;;;;;5008132;28;8938;-91
2022/12/14 12:52:34;;;;;;;;;0.00;0.00;;;;;;;;4989198;28;8801;-90
2022/12/14 12:55:01;;;;;;;;;0.00;0.00;;;;;;;;4988921;28;27847;-90
2022/12/14 12:57:28;;;;;;;;;0.00;0.00;;;;;;;;4989539;28;28561;-90
2022/12/14 12:59:54;;;;;;;;;0.00;0.00;;;;;;;;4990643;28;27960;-89
2022/12/14 13:02:29;;;;;;;;;0.00;0.00;;;;;;;;4994227;28;8824;-90
2022/12/14 13:04:54;;;;;;;;;2.00;2.00;;;;;;;;4988722;28;8844;-90
2022/12/14 13:07:19;;;;;;;;;0.00;0.00;;;;;;;;4981542;28;24898;-90
2022/12/14 13:09:47;;;;;;;;;0.00;0.00;;;;;;;;4990447;28;27972;-90
2022/12/14 13:12:35;;;;;;;;;0.00;0.00;;;;;;;;5013932;28;10374;-90
2022/12/14 13:15:02;;;;;;;;;0.00;0.00;;;;;;;;4978133;28;8823;-90
2022/12/14 13:17:31;;;;;;;;;0.00;0.00;;;;;;;;4992321;28;10271;-90
2022/12/14 13:19:58;;;;;;;;;0.00;0.00;;;;;;;;5010776;28;8893;-91
2022/12/14 13:22:27;;;;;;;;;0.00;0.00;;;;;;;;5023871;28;8838;-90
2022/12/14 13:24:54;;;;;;;;;0.00;0.00;;;;;;;;5021038;28;25632;-89
2022/12/14 13:27:34;;;;;;;;;3.67;3.67;;;;;;;;5018533;28;15476;-91
2022/12/14 13:30:19;;;;;;;;;0.00;0.00;;;;;;;;4996787;28;9850;-91
2022/12/14 13:32:55;;;;;;;;;0.00;0.00;;;;;;;;5011996;28;9475;-90
2022/12/14 13:35:53;;;;;;;;;0.00;0.00;;;;;;;;5021388;28;8953;-91
2022/12/14 13:38:18;;;;;;;;;0.00;0.00;;;;;;;;4953571;28;9962;-88
2022/12/14 13:40:47;;;;;;;;;0.00;0.00;;;;;;;;4970462;28;9009;-88
2022/12/14 13:43:31;;;;;;;;;0.00;0.00;;;;;;;;4969465;28;8875;-86
2022/12/14 13:46:03;;;;;;;;;0.00;0.00;;;;;;;;4960334;28;9859;-88
2022/12/14 13:48:35;;;;;;;;;0.00;0.00;;;;;;;;4978004;28;11967;-88
2022/12/14 13:51:04;;;;;;;;;0.00;0.00;;;;;;;;4966890;28;9190;-87
2022/12/14 13:53:47;;;;;;;;;0.00;0.00;;;;;;;;4956779;28;8827;-88
2022/12/14 13:56:19;;;;;;;;;0.00;0.00;;;;;;;;4978668;28;8783;-88
2022/12/14 13:58:47;;;;;;;;;0.00;0.00;;;;;;;;4981308;28;8956;-88
2022/12/14 14:01:14;;;;;;;;;4.00;4.00;;;;;;;;4954356;28;10547;-88
2022/12/14 14:03:43;;;;;;;;;1.00;1.00;;;;;;;;4959777;28;9683;-89
2022/12/14 14:06:11;;;;;;;;;0.00;0.00;;;;;;;;4969710;28;8972;-87
2022/12/14 14:08:40;;;;;;;;;0.00;0.00;;;;;;;;4972684;28;9084;-88
2022/12/14 14:11:17;;;;;;;;;0.00;0.00;;;;;;;;4969795;28;40412;-87
2022/12/14 14:13:42;;;;;;;;;3.00;3.00;;;;;;;;4985033;28;45897;-87
2022/12/14 14:16:13;;;;;;;;;0.00;0.00;;;;;;;;5011112;28;8827;-88
2022/12/14 14:19:11;;;;;;;;;0.00;0.00;;;;;;;;5015027;28;9639;-87
2022/12/14 14:21:44;;;;;;;;;2.33;2.33;;;;;;;;4929568;28;9938;-88
2022/12/14 14:24:13;;;;;;;;;0.00;0.00;;;;;;;;4922415;28;9921;-88
2022/12/14 14:26:40;;;;;;;;;0.00;0.00;;;;;;;;4935768;28;9257;-88
2022/12/14 14:29:14;;;;;;;;;0.00;0.00;;;;;;;;4916523;29;9314;-88
2022/12/14 14:31:50;;;;;;;;;0.00;0.00;;;;;;;;4917247;29;27767;-88
2022/12/14 14:34:22;;;;;;;;;0.00;0.00;;;;;;;;4947095;28;10383;-88
2022/12/14 14:36:48;;;;;;;;;0.00;0.00;;;;;;;;4946913;28;10622;-87
2022/12/14 14:39:31;;;;;;;;;0.00;0.00;;;;;;;;4914804;28;8975;-88
2022/12/14 14:41:57;;;;;;;;;0.00;0.00;;;;;;;;4935588;28;9921;-88
2022/12/14 14:44:42;;;;;;;;;0.00;0.00;;;;;;;;4919880;28;10068;-88
2022/12/14 14:47:26;;;;;;;;;0.00;0.00;;;;;;;;4945405;28;26425;-88
2022/12/14 14:49:54;;;;;;;;;0.00;0.00;;;;;;;;4938707;28;9582;-87
2022/12/14 14:52:34;;;;;;;;;0.00;0.00;;;;;;;;4939090;28;10088;-88
2022/12/14 14:55:19;;;;;;;;;0.00;0.00;;;;;;;;4926450;28;29915;-88
2022/12/14 14:57:55;;;;;;;;;0.00;0.00;;;;;;;;4967940;28;28920;-89
2022/12/14 15:00:21;;;;;;;;;0.00;0.00;;;;;;;;4998525;28;25744;-92
2022/12/14 15:02:49;;;;;;;;;0.00;0.00;;;;;;;;4987961;28;26650;-91
2022/12/14 15:05:18;;;;;;;;;0.00;0.00;;;;;;;;5001513;28;28388;-91
2022/12/14 15:07:44;;;;;;;;;1.00;1.00;;;;;;;;4973908;28;29090;-89
2022/12/14 15:10:28;;;;;;;;;0.00;0.00;;;;;;;;4998851;28;9556;-88
2022/12/14 15:12:57;;;;;;;;;0.00;0.00;;;;;;;;4992236;28;8819;-88
2022/12/14 15:15:28;;;;;;;;;0.00;0.00;;;;;;;;4995910;28;28040;-89
2022/12/14 15:18:12;;;;;;;;;0.00;0.00;;;;;;;;4973987;28;28910;-89
2022/12/14 15:20:38;;;;;;;;;1.33;1.33;;;;;;;;4987686;28;28484;-89
2022/12/14 15:23:04;;;;;;;;;0.00;0.00;;;;;;;;4998281;28;19270;-89
2022/12/14 15:25:30;;;;;;;;;0.00;0.00;;;;;;;;4992905;28;8850;-89
2022/12/14 15:27:59;;;;;;;;;0.00;0.00;;;;;;;;5010741;28;8838;-88
2022/12/14 15:30:25;;;;;;;;;0.00;0.00;;;;;;;;5008929;28;25145;-89
2022/12/14 15:33:00;;;;;;;;;0.00;0.00;;;;;;;;5008101;28;28610;-88
2022/12/14 15:35:27;;;;;;;;;0.00;0.00;;;;;;;;4999152;28;29804;-88
2022/12/14 15:37:56;;;;;;;;;12.00;12.00;;;;;;;;5003267;28;28580;-89
2022/12/14 15:40:24;;;;;;;;;0.00;0.00;;;;;;;;4981163;28;28488;-88